sensor_id;sensor_type;location;lat;lon;timestamp;pressure;altitude;pressure_sealevel;temperature;humidity
49030;BME280;43337;52.070;4.508;2023-03-18T00:01:45;100872.69;;;10.22;100.00
49030;BME280;43337;52.070;4.508;2023-03-18T00:04:11;100885.03;;;10.20;100.00
49030;BME280;43337;52.070;4.508;2023-03-18T00:06:37;100881.66;;;10.17;100.00
49030;BME280;43337;52.070;4.508;2023-03-18T00:09:03;100887.84;;;10.16;100.00
49030;BME280;43337;52.070;4.508;2023-03-18T00:11:29;100893.31;;;10.11;100.00
49030;BME280;43337;52.070;4.508;2023-03-18T00:13:56;100888.16;;;10.08;100.00
49030;BME280;43337;52.070;4.508;2023-03-18T00:16:22;100892.59;;;10.06;100.00
49030;BME280;43337;52.070;4.508;2023-03-18T00:18:47;100893.59;;;10.03;100.00
49030;BME280;43337;52.070;4.508;2023-03-18T00:21:13;100886.88;;;9.96;100.00
49030;BME280;43337;52.070;4.508;2023-03-18T00:23:41;100884.16;;;9.98;100.00
49030;BME280;43337;52.070;4.508;2023-03-18T00:26:07;100895.31;;;10.05;100.00
49030;BME280;43337;52.070;4.508;2023-03-18T00:28:33;100884.06;;;10.01;100.00
49030;BME280;43337;52.070;4.508;2023-03-18T00:31:08;100892.59;;;10.06;100.00
49030;BME280;43337;52.070;4.508;2023-03-18T00:33:35;100894.34;;;10.07;100.00
49030;BME280;43337;52.070;4.508;2023-03-18T00:36:01;100861.94;;;9.83;100.00
49030;BME280;43337;52.070;4.508;2023-03-18T00:38:27;100898.72;;;10.07;100.00
49030;BME280;43337;52.070;4.508;2023-03-18T00:40:54;100888.38;;;10.02;100.00
49030;BME280;43337;52.070;4.508;2023-03-18T00:43:29;100893.53;;;10.05;100.00
49030;BME280;43337;52.070;4.508;2023-03-18T00:45:58;100893.59;;;10.03;100.00
49030;BME280;43337;52.070;4.508;2023-03-18T00:48:24;100870.47;;;9.90;100.00
49030;BME280;43337;52.070;4.508;2023-03-18T00:50:50;100866.97;;;9.89;100.00
49030;BME280;43337;52.070;4.508;2023-03-18T00:53:18;100897.13;;;10.02;100.00
49030;BME280;43337;52.070;4.508;2023-03-18T00:55:44;100880.69;;;9.97;100.00
49030;BME280;43337;52.070;4.508;2023-03-18T00:58:10;100885.81;;;10.00;100.00
49030;BME280;43337;52.070;4.508;2023-03-18T01:00:36;100892.13;;;9.96;100.00
49030;BME280;43337;52.070;4.508;2023-03-18T01:03:02;100888.50;;;9.99;100.00
49030;BME280;43337;52.070;4.508;2023-03-18T01:05:29;100892.06;;;9.98;100.00
49030;BME280;43337;52.070;4.508;2023-03-18T01:07:55;100883.44;;;9.94;100.00
49030;BME280;43337;52.070;4.508;2023-03-18T01:10:21;100884.34;;;9.93;100.00
49030;BME280;43337;52.070;4.508;2023-03-18T01:12:47;100889.44;;;9.98;100.00
49030;BME280;43337;52.070;4.508;2023-03-18T01:15:15;100882.38;;;9.98;100.00
49030;BME280;43337;52.070;4.508;2023-03-18T01:17:41;100880.75;;;9.96;100.00
49030;BME280;43337;52.070;4.508;2023-03-18T01:20:07;100880.88;;;9.93;100.00
49030;BME280;43337;52.070;4.508;2023-03-18T01:22:36;100882.69;;;9.91;100.00
49030;BME280;43337;52.070;4.508;2023-03-18T01:25:02;100891.28;;;9.96;100.00
49030;BME280;43337;52.070;4.508;2023-03-18T01:27:27;100890.38;;;9.95;100.00
49030;BME280;43337;52.070;4.508;2023-03-18T01:29:53;100885.13;;;9.95;100.00
49030;BME280;43337;52.070;4.508;2023-03-18T01:32:18;100889.44;;;9.98;100.00
49030;BME280;43337;52.070;4.508;2023-03-18T01:34:44;100890.34;;;9.97;100.00
49030;BME280;43337;52.070;4.508;2023-03-18T01:37:10;100885.88;;;9.99;100.00
49030;BME280;43337;52.070;4.508;2023-03-18T01:39:36;100886.78;;;9.98;100.00
49030;BME280;43337;52.070;4.508;2023-03-18T01:42:01;100897.28;;;9.99;100.00
49030;BME280;43337;52.070;4.508;2023-03-18T01:44:27;100883.53;;;9.91;100.00
49030;BME280;43337;52.070;4.508;2023-03-18T01:46:53;100899.91;;;9.99;100.00
49030;BME280;43337;52.070;4.508;2023-03-18T01:49:27;100902.47;;;10.01;100.00
49030;BME280;43337;52.070;4.508;2023-03-18T01:51:59;100894.66;;;9.99;100.00
49030;BME280;43337;52.070;4.508;2023-03-18T01:54:27;100898.88;;;10.03;100.00
49030;BME280;43337;52.070;4.508;2023-03-18T01:56:54;100890.22;;;10.00;100.00
49030;BME280;43337;52.070;4.508;2023-03-18T01:59:24;100894.38;;;10.06;100.00
49030;BME280;43337;52.070;4.508;2023-03-18T02:01:58;100891.13;;;9.99;100.00
49030;BME280;43337;52.070;4.508;2023-03-18T02:04:28;100889.25;;;10.02;100.00
49030;BME280;43337;52.070;4.508;2023-03-18T02:06:57;100872.88;;;9.96;100.00
49030;BME280;43337;52.070;4.508;2023-03-18T02:09:22;100898.78;;;10.05;100.00
49030;BME280;43337;52.070;4.508;2023-03-18T02:11:49;100889.25;;;10.02;100.00
49030;BME280;43337;52.070;4.508;2023-03-18T02:14:20;100897.31;;;9.98;100.00
49030;BME280;43337;52.070;4.508;2023-03-18T02:16:58;100895.31;;;10.05;100.00
49030;BME280;43337;52.070;4.508;2023-03-18T02:22:29;100899.66;;;10.06;100.00
49030;BME280;43337;52.070;4.508;2023-03-18T02:25:08;100888.56;;;9.97;100.00
49030;BME280;43337;52.070;4.508;2023-03-18T02:27:39;100896.28;;;10.02;100.00
49030;BME280;43337;52.070;4.508;2023-03-18T02:30:16;100883.97;;;10.02;100.00
49030;BME280;43337;52.070;4.508;2023-03-18T02:32:44;100883.00;;;10.05;100.00
49030;BME280;43337;52.070;4.508;2023-03-18T02:35:11;100888.09;;;10.10;100.00
49030;BME280;43337;52.070;4.508;2023-03-18T02:37:36;100898.56;;;10.11;100.00
49030;BME280;43337;52.070;4.508;2023-03-18T02:40:27;100896.97;;;10.07;100.00
49030;BME280;43337;52.070;4.508;2023-03-18T02:42:54;100899.53;;;10.09;100.00
49030;BME280;43337;52.070;4.508;2023-03-18T02:45:39;100902.91;;;10.12;100.00
49030;BME280;43337;52.070;4.508;2023-03-18T02:48:10;100901.19;;;10.11;100.00
49030;BME280;43337;52.070;4.508;2023-03-18T02:50:38;100906.31;;;10.14;100.00
49030;BME280;43337;52.070;4.508;2023-03-18T02:53:04;100902.81;;;10.14;100.00
49030;BME280;43337;52.070;4.508;2023-03-18T02:55:30;100899.34;;;10.13;100.00
49030;BME280;43337;52.070;4.508;2023-03-18T02:57:55;100883.97;;;10.02;100.00
49030;BME280;43337;52.070;4.508;2023-03-18T03:00:21;100884.81;;;10.03;100.00
49030;BME280;43337;52.070;4.508;2023-03-18T03:02:46;100897.81;;;10.08;100.00
49030;BME280;43337;52.070;4.508;2023-03-18T03:05:12;100906.38;;;10.13;100.00
49030;BME280;43337;52.070;4.508;2023-03-18T03:07:37;100915.13;;;10.13;100.00
49030;BME280;43337;52.070;4.508;2023-03-18T03:10:05;100910.69;;;10.15;100.00
49030;BME280;43337;52.070;4.508;2023-03-18T03:12:30;100878.97;;;9.96;100.00
49030;BME280;43337;52.070;4.508;2023-03-18T03:14:56;100890.06;;;10.05;100.00
49030;BME280;43337;52.070;4.508;2023-03-18T03:17:21;100889.25;;;10.02;100.00
49030;BME280;43337;52.070;4.508;2023-03-18T03:19:48;100902.72;;;10.17;100.00
49030;BME280;43337;52.070;4.508;2023-03-18T03:22:13;100918.31;;;10.21;100.00
49030;BME280;43337;52.070;4.508;2023-03-18T03:24:41;100919.22;;;10.20;100.00
49030;BME280;43337;52.070;4.508;2023-03-18T03:27:07;100921.75;;;10.23;100.00
49030;BME280;43337;52.070;4.508;2023-03-18T03:29:33;100913.84;;;10.23;100.00
49030;BME280;43337;52.070;4.508;2023-03-18T03:31:58;100918.19;;;10.24;100.00
49030;BME280;43337;52.070;4.508;2023-03-18T03:34:26;100907.97;;;10.17;100.00
49030;BME280;43337;52.070;4.508;2023-03-18T03:36:51;100890.97;;;10.03;100.00
49030;BME280;43337;52.070;4.508;2023-03-18T03:39:17;100921.75;;;10.23;100.00
49030;BME280;43337;52.070;4.508;2023-03-18T03:41:43;100914.03;;;10.19;100.00
49030;BME280;43337;52.070;4.508;2023-03-18T03:44:08;100928.69;;;10.26;100.00
49030;BME280;43337;52.070;4.508;2023-03-18T03:46:33;100933.91;;;10.27;100.00
49030;BME280;43337;52.070;4.508;2023-03-18T03:48:59;100934.94;;;10.22;100.00
49030;BME280;43337;52.070;4.508;2023-03-18T03:51:25;100942.84;;;10.22;100.00
49030;BME280;43337;52.070;4.508;2023-03-18T03:53:50;100952.69;;;10.17;100.00
49030;BME280;43337;52.070;4.508;2023-03-18T03:56:16;100945.03;;;10.11;100.00
49030;BME280;43337;52.070;4.508;2023-03-18T03:58:43;100945.22;;;10.06;100.00
49030;BME280;43337;52.070;4.508;2023-03-18T04:01:09;100930.75;;;9.94;100.00
49030;BME280;43337;52.070;4.508;2023-03-18T04:03:35;100925.06;;;9.83;100.00
49030;BME280;43337;52.070;4.508;2023-03-18T04:06:01;100939.81;;;9.87;100.00
49030;BME280;43337;52.070;4.508;2023-03-18T04:08:26;100932.94;;;9.83;100.00
49030;BME280;43337;52.070;4.508;2023-03-18T04:10:52;100941.75;;;9.82;100.00
49030;BME280;43337;52.070;4.508;2023-03-18T04:13:17;100935.72;;;9.80;100.00
49030;BME280;43337;52.070;4.508;2023-03-18T04:15:43;100919.53;;;9.67;100.00
49030;BME280;43337;52.070;4.508;2023-03-18T04:18:09;100948.22;;;9.73;100.00
49030;BME280;43337;52.070;4.508;2023-03-18T04:20:36;100950.00;;;9.73;100.00
49030;BME280;43337;52.070;4.508;2023-03-18T04:23:04;100949.28;;;9.68;100.00
49030;BME280;43337;52.070;4.508;2023-03-18T04:25:30;100939.97;;;9.59;100.00
49030;BME280;43337;52.070;4.508;2023-03-18T04:27:56;100960.81;;;9.65;100.00
49030;BME280;43337;52.070;4.508;2023-03-18T04:30:21;100982.44;;;9.72;100.00
49030;BME280;43337;52.070;4.508;2023-03-18T04:32:49;100980.81;;;9.69;100.00
49030;BME280;43337;52.070;4.508;2023-03-18T04:35:16;100968.91;;;9.59;100.00
49030;BME280;43337;52.070;4.508;2023-03-18T04:37:41;100946.53;;;9.47;100.00
49030;BME280;43337;52.070;4.508;2023-03-18T04:40:08;100979.88;;;9.70;100.00
49030;BME280;43337;52.070;4.508;2023-03-18T04:42:34;100965.41;;;9.59;100.00
49030;BME280;43337;52.070;4.508;2023-03-18T04:45:00;100993.03;;;9.70;100.00
49030;BME280;43337;52.070;4.508;2023-03-18T04:47:26;100994.81;;;9.70;100.00
49030;BME280;43337;52.070;4.508;2023-03-18T04:49:52;100988.88;;;9.65;100.00
49030;BME280;43337;52.070;4.508;2023-03-18T04:52:18;100987.94;;;9.66;100.00
49030;BME280;43337;52.070;4.508;2023-03-18T04:54:44;100998.28;;;9.70;100.00
49030;BME280;43337;52.070;4.508;2023-03-18T04:57:10;100985.53;;;9.60;100.00
49030;BME280;43337;52.070;4.508;2023-03-18T04:59:37;101002.72;;;9.68;100.00
49030;BME280;43337;52.070;4.508;2023-03-18T05:02:03;101002.69;;;9.70;100.00
49030;BME280;43337;52.070;4.508;2023-03-18T05:04:29;100996.69;;;9.66;100.00
49030;BME280;43337;52.070;4.508;2023-03-18T05:06:54;101009.91;;;9.65;100.00
49030;BME280;43337;52.070;4.508;2023-03-18T05:09:19;101007.94;;;9.70;100.00
49030;BME280;43337;52.070;4.508;2023-03-18T05:11:45;101004.50;;;9.68;100.00
49030;BME280;43337;52.070;4.508;2023-03-18T05:14:10;101004.66;;;9.63;100.00
49030;BME280;43337;52.070;4.508;2023-03-18T05:16:36;101002.91;;;9.64;100.00
49030;BME280;43337;52.070;4.508;2023-03-18T05:19:02;101013.38;;;9.65;100.00
49030;BME280;43337;52.070;4.508;2023-03-18T05:21:27;100994.50;;;9.54;100.00
49030;BME280;43337;52.070;4.508;2023-03-18T05:23:53;100992.81;;;9.51;100.00
49030;BME280;43337;52.070;4.508;2023-03-18T05:26:18;100992.75;;;9.53;100.00
49030;BME280;43337;52.070;4.508;2023-03-18T05:28:44;100989.41;;;9.49;100.00
49030;BME280;43337;52.070;4.508;2023-03-18T05:31:09;100985.91;;;9.49;100.00
49030;BME280;43337;52.070;4.508;2023-03-18T05:33:35;100990.94;;;9.55;100.00
49030;BME280;43337;52.070;4.508;2023-03-18T05:36:00;100990.19;;;9.51;100.00
49030;BME280;43337;52.070;4.508;2023-03-18T05:38:26;100974.78;;;9.42;100.00
49030;BME280;43337;52.070;4.508;2023-03-18T05:40:52;100998.94;;;9.52;100.00
49030;BME280;43337;52.070;4.508;2023-03-18T05:43:17;101011.03;;;9.58;100.00
49030;BME280;43337;52.070;4.508;2023-03-18T05:45:43;101004.84;;;9.59;100.00
49030;BME280;43337;52.070;4.508;2023-03-18T05:48:08;101005.00;;;9.54;100.00
49030;BME280;43337;52.070;4.508;2023-03-18T05:50:40;100997.88;;;9.58;100.00
49030;BME280;43337;52.070;4.508;2023-03-18T05:53:07;101001.34;;;9.58;100.00
49030;BME280;43337;52.070;4.508;2023-03-18T05:55:33;100992.91;;;9.50;100.00
49030;BME280;43337;52.070;4.508;2023-03-18T05:57:59;100997.91;;;9.56;100.00
49030;BME280;43337;52.070;4.508;2023-03-18T06:00:28;100990.31;;;9.48;100.00
49030;BME280;43337;52.070;4.508;2023-03-18T06:02:54;101009.44;;;9.52;100.00
49030;BME280;43337;52.070;4.508;2023-03-18T06:05:21;101007.06;;;9.46;100.00
49030;BME280;43337;52.070;4.508;2023-03-18T06:07:47;100995.06;;;9.37;100.00
49030;BME280;43337;52.070;4.508;2023-03-18T06:10:13;101014.31;;;9.38;100.00
49030;BME280;43337;52.070;4.508;2023-03-18T06:12:39;101023.97;;;9.37;100.00
49030;BME280;43337;52.070;4.508;2023-03-18T06:15:07;101030.25;;;9.33;100.00
49030;BME280;43337;52.070;4.508;2023-03-18T06:17:33;101029.50;;;9.29;100.00
49030;BME280;43337;52.070;4.508;2023-03-18T06:19:58;101029.63;;;9.26;100.00
49030;BME280;43337;52.070;4.508;2023-03-18T06:22:24;101028.91;;;9.21;100.00
49030;BME280;43337;52.070;4.508;2023-03-18T06:24:51;101023.91;;;9.14;100.00
49030;BME280;43337;52.070;4.508;2023-03-18T06:27:16;101032.75;;;9.11;100.00
49030;BME280;43337;52.070;4.508;2023-03-18T06:29:42;101045.06;;;9.09;100.00
49030;BME280;43337;52.070;4.508;2023-03-18T06:32:08;101030.50;;;9.00;100.00
49030;BME280;43337;52.070;4.508;2023-03-18T06:34:34;101050.34;;;9.09;100.00
49030;BME280;43337;52.070;4.508;2023-03-18T06:37:00;101047.59;;;9.12;100.00
49030;BME280;43337;52.070;4.508;2023-03-18T06:39:26;101057.63;;;9.26;100.00
49030;BME280;43337;52.070;4.508;2023-03-18T06:41:52;101054.22;;;9.24;100.00
49030;BME280;43337;52.070;4.508;2023-03-18T06:44:21;101070.41;;;9.37;100.00
49030;BME280;43337;52.070;4.508;2023-03-18T06:46:47;101058.38;;;9.31;100.00
49030;BME280;43337;52.070;4.508;2023-03-18T06:49:13;101068.34;;;9.46;100.00
49030;BME280;43337;52.070;4.508;2023-03-18T06:51:39;101077.09;;;9.47;100.00
49030;BME280;43337;52.070;4.508;2023-03-18T06:54:06;101075.97;;;9.54;100.00
49030;BME280;43337;52.070;4.508;2023-03-18T06:56:33;101079.28;;;9.59;100.00
49030;BME280;43337;52.070;4.508;2023-03-18T06:59:02;101067.06;;;9.58;100.00
49030;BME280;43337;52.070;4.508;2023-03-18T07:01:27;101079.13;;;9.64;100.00
49030;BME280;43337;52.070;4.508;2023-03-18T07:03:54;101078.28;;;9.63;100.00
49030;BME280;43337;52.070;4.508;2023-03-18T07:06:20;101073.03;;;9.63;100.00
49030;BME280;43337;52.070;4.508;2023-03-18T07:08:45;101053.94;;;9.58;100.00
49030;BME280;43337;52.070;4.508;2023-03-18T07:11:11;101093.59;;;9.77;100.00
49030;BME280;43337;52.070;4.508;2023-03-18T07:13:36;101071.03;;;9.70;100.00
49030;BME280;43337;52.070;4.508;2023-03-18T07:16:03;101086.28;;;9.85;100.00
49030;BME280;43337;52.070;4.508;2023-03-18T07:18:29;101075.00;;;9.82;100.00
49030;BME280;43337;52.070;4.508;2023-03-18T07:20:54;101093.84;;;9.94;100.00
49030;BME280;43337;52.070;4.508;2023-03-18T07:23:20;101086.66;;;9.99;100.00
49030;BME280;43337;52.070;4.508;2023-03-18T07:25:46;101079.63;;;10.00;100.00
49030;BME280;43337;52.070;4.508;2023-03-18T07:28:12;101083.75;;;10.07;100.00
49030;BME280;43337;52.070;4.508;2023-03-18T07:30:37;101076.63;;;10.09;100.00
49030;BME280;43337;52.070;4.508;2023-03-18T07:33:04;101086.72;;;10.21;100.00
49030;BME280;43337;52.070;4.508;2023-03-18T07:35:29;101083.91;;;10.27;100.00
49030;BME280;43337;52.070;4.508;2023-03-18T07:37:55;101072.56;;;10.25;100.00
49030;BME280;43337;52.070;4.508;2023-03-18T07:40:21;101083.50;;;10.38;100.00
49030;BME280;43337;52.070;4.508;2023-03-18T07:42:46;101072.91;;;10.40;100.00
49030;BME280;43337;52.070;4.508;2023-03-18T07:45:12;101097.91;;;10.51;100.00
49030;BME280;43337;52.070;4.508;2023-03-18T07:47:38;101071.38;;;10.56;100.00
49030;BME280;43337;52.070;4.508;2023-03-18T07:50:04;101077.28;;;10.63;100.00
49030;BME280;43337;52.070;4.508;2023-03-18T07:52:30;101089.19;;;10.73;100.00
49030;BME280;43337;52.070;4.508;2023-03-18T07:54:56;101091.38;;;10.84;100.00
49030;BME280;43337;52.070;4.508;2023-03-18T07:57:22;101092.69;;;10.95;100.00
49030;BME280;43337;52.070;4.508;2023-03-18T07:59:48;101094.75;;;11.09;100.00
49030;BME280;43337;52.070;4.508;2023-03-18T08:02:13;101103.09;;;11.20;100.00
49030;BME280;43337;52.070;4.508;2023-03-18T08:04:40;101098.44;;;11.27;100.00
49030;BME280;43337;52.070;4.508;2023-03-18T08:07:07;101094.47;;;11.37;100.00
49030;BME280;43337;52.070;4.508;2023-03-18T08:09:32;101097.84;;;11.41;100.00
49030;BME280;43337;52.070;4.508;2023-03-18T08:11:58;101091.47;;;11.46;100.00
49030;BME280;43337;52.070;4.508;2023-03-18T08:14:24;101095.59;;;11.52;100.00
49030;BME280;43337;52.070;4.508;2023-03-18T08:16:50;101087.56;;;11.55;100.00
49030;BME280;43337;52.070;4.508;2023-03-18T08:19:15;101085.75;;;11.57;100.00
49030;BME280;43337;52.070;4.508;2023-03-18T08:21:40;101069.13;;;11.55;100.00
49030;BME280;43337;52.070;4.508;2023-03-18T08:24:07;101089.03;;;11.62;100.00
49030;BME280;43337;52.070;4.508;2023-03-18T08:26:34;101087.97;;;11.66;100.00
49030;BME280;43337;52.070;4.508;2023-03-18T08:28:59;101097.53;;;11.69;100.00
49030;BME280;43337;52.070;4.508;2023-03-18T08:31:25;101093.19;;;11.68;100.00
49030;BME280;43337;52.070;4.508;2023-03-18T08:33:50;101091.41;;;11.68;100.00
49030;BME280;43337;52.070;4.508;2023-03-18T08:36:18;101079.22;;;11.66;100.00
49030;BME280;43337;52.070;4.508;2023-03-18T08:38:44;101105.06;;;11.78;100.00
49030;BME280;43337;52.070;4.508;2023-03-18T08:41:09;101110.13;;;11.83;100.00
49030;BME280;43337;52.070;4.508;2023-03-18T08:43:35;101116.25;;;11.85;100.00
49030;BME280;43337;52.070;4.508;2023-03-18T08:46:00;101101.78;;;11.73;100.00
49030;BME280;43337;52.070;4.508;2023-03-18T08:48:26;101104.19;;;11.78;100.00
49030;BME280;43337;52.070;4.508;2023-03-18T08:50:52;101107.63;;;11.80;100.00
49030;BME280;43337;52.070;4.508;2023-03-18T08:53:18;101136.72;;;11.98;100.00
49030;BME280;43337;52.070;4.508;2023-03-18T08:55:45;101137.41;;;12.04;100.00
49030;BME280;43337;52.070;4.508;2023-03-18T08:58:10;101126.19;;;11.98;100.00
49030;BME280;43337;52.070;4.508;2023-03-18T09:00:38;101137.53;;;12.01;100.00
49030;BME280;43337;52.070;4.508;2023-03-18T09:03:04;101133.44;;;11.93;100.00
49030;BME280;43337;52.070;4.508;2023-03-18T09:05:29;101129.53;;;11.82;100.00
49030;BME280;43337;52.070;4.508;2023-03-18T09:07:56;101141.00;;;11.81;100.00
49030;BME280;43337;52.070;4.508;2023-03-18T09:10:23;101139.28;;;11.80;100.00
49030;BME280;43337;52.070;4.508;2023-03-18T09:12:49;101151.47;;;11.82;100.00
49030;BME280;43337;52.070;4.508;2023-03-18T09:15:16;101155.59;;;11.89;100.00
49030;BME280;43337;52.070;4.508;2023-03-18T09:17:42;101155.19;;;11.98;100.00
49030;BME280;43337;52.070;4.508;2023-03-18T09:20:10;101151.16;;;12.10;100.00
49030;BME280;43337;52.070;4.508;2023-03-18T09:22:37;101161.06;;;12.26;100.00
49030;BME280;43337;52.070;4.508;2023-03-18T09:25:03;101137.63;;;12.38;100.00
49030;BME280;43337;52.070;4.508;2023-03-18T09:27:29;101129.69;;;12.38;100.00
49030;BME280;43337;52.070;4.508;2023-03-18T09:29:54;101140.06;;;12.43;100.00
49030;BME280;43337;52.070;4.508;2023-03-18T09:32:21;101121.78;;;12.38;100.00
49030;BME280;43337;52.070;4.508;2023-03-18T09:34:47;101132.25;;;12.40;100.00
49030;BME280;43337;52.070;4.508;2023-03-18T09:37:12;101106.19;;;12.32;100.00
49030;BME280;43337;52.070;4.508;2023-03-18T09:39:39;101135.84;;;12.58;100.00
49030;BME280;43337;52.070;4.508;2023-03-18T09:42:18;101142.28;;;12.71;100.00
49030;BME280;43337;52.070;4.508;2023-03-18T09:44:50;101144.41;;;12.82;100.00
49030;BME280;43337;52.070;4.508;2023-03-18T09:50:39;101122.47;;;12.99;100.00
49030;BME280;43337;52.070;4.508;2023-03-18T09:53:19;101137.41;;;13.18;100.00
49030;BME280;43337;52.070;4.508;2023-03-18T09:55:52;101139.25;;;13.16;100.00
49030;BME280;43337;52.070;4.508;2023-03-18T09:58:30;101131.59;;;13.10;100.00
49030;BME280;43337;52.070;4.508;2023-03-18T10:01:01;101151.38;;;13.20;100.00
49030;BME280;43337;52.070;4.508;2023-03-18T10:03:38;101134.19;;;13.12;100.00
49030;BME280;43337;52.070;4.508;2023-03-18T10:06:14;101108.13;;;13.04;100.00
49030;BME280;43337;52.070;4.508;2023-03-18T10:11:36;101128.44;;;13.21;100.00
49030;BME280;43337;52.070;4.508;2023-03-18T10:17:19;101138.44;;;13.33;100.00
49030;BME280;43337;52.070;4.508;2023-03-18T10:20:01;101135.25;;;13.27;100.00
49030;BME280;43337;52.070;4.508;2023-03-18T10:25:34;101140.47;;;13.28;100.00
49030;BME280;43337;52.070;4.508;2023-03-18T10:32:02;101147.25;;;13.34;100.00
49030;BME280;43337;52.070;4.508;2023-03-18T10:33:58;101145.16;;;13.40;100.00
49030;BME280;43337;52.070;4.508;2023-03-18T10:36:37;101137.34;;;13.37;100.00
49030;BME280;43337;52.070;4.508;2023-03-18T10:39:14;101150.75;;;13.52;100.00
49030;BME280;43337;52.070;4.508;2023-03-18T10:41:40;101147.03;;;13.56;100.00
49030;BME280;43337;52.070;4.508;2023-03-18T10:44:17;101151.03;;;13.64;100.00
49030;BME280;43337;52.070;4.508;2023-03-18T10:46:45;101153.81;;;13.79;100.00
49030;BME280;43337;52.070;4.508;2023-03-18T10:49:21;101158.47;;;13.91;100.00
49030;BME280;43337;52.070;4.508;2023-03-18T10:52:00;101161.44;;;14.02;100.00
49030;BME280;43337;52.070;4.508;2023-03-18T10:54:38;101161.44;;;14.02;100.00
49030;BME280;43337;52.070;4.508;2023-03-18T10:57:05;101159.56;;;14.04;100.00
49030;BME280;43337;52.070;4.508;2023-03-18T10:59:32;101149.84;;;14.05;100.00
49030;BME280;43337;52.070;4.508;2023-03-18T11:02:01;101132.88;;;13.91;100.00
49030;BME280;43337;52.070;4.508;2023-03-18T11:04:52;101145.78;;;13.98;100.00
49030;BME280;43337;52.070;4.508;2023-03-18T11:07:20;101156.38;;;13.98;100.00
49030;BME280;43337;52.070;4.508;2023-03-18T11:09:48;101161.13;;;13.91;100.00
49030;BME280;43337;52.070;4.508;2023-03-18T11:12:17;101167.50;;;13.87;100.00
49030;BME280;43337;52.070;4.508;2023-03-18T11:14:48;101163.69;;;13.75;100.00
49030;BME280;43337;52.070;4.508;2023-03-18T11:17:31;101160.81;;;13.62;100.00
49030;BME280;43337;52.070;4.508;2023-03-18T11:20:21;101167.56;;;13.51;100.00
49030;BME280;43337;52.070;4.508;2023-03-18T11:22:51;101162.03;;;13.38;100.00
49030;BME280;43337;52.070;4.508;2023-03-18T11:25:18;101163.31;;;13.29;100.00
49030;BME280;43337;52.070;4.508;2023-03-18T11:27:58;101163.88;;;13.17;100.00
49030;BME280;43337;52.070;4.508;2023-03-18T11:30:34;101166.19;;;13.06;100.00
49030;BME280;43337;52.070;4.508;2023-03-18T11:35:41;101160.34;;;12.99;100.00
49030;BME280;43337;52.070;4.508;2023-03-18T11:38:26;101149.25;;;12.91;100.00
49030;BME280;43337;52.070;4.508;2023-03-18T11:43:31;101139.25;;;12.98;100.00
49030;BME280;43337;52.070;4.508;2023-03-18T11:45:58;101124.63;;;12.90;100.00
49030;BME280;43337;52.070;4.508;2023-03-18T11:48:35;101133.59;;;13.05;100.00
49030;BME280;43337;52.070;4.508;2023-03-18T11:53:42;101136.75;;;13.13;100.00
49030;BME280;43337;52.070;4.508;2023-03-18T11:56:15;101133.81;;;13.19;100.00
49030;BME280;43337;52.070;4.508;2023-03-18T12:01:59;101125.00;;;13.38;100.00
49030;BME280;43337;52.070;4.508;2023-03-18T12:07:31;101140.34;;;13.66;100.00
49030;BME280;43337;52.070;4.508;2023-03-18T12:10:11;101141.53;;;13.78;100.00
49030;BME280;43337;52.070;4.508;2023-03-18T12:12:47;101147.03;;;13.90;100.00
49030;BME280;43337;52.070;4.508;2023-03-18T12:15:28;101143.00;;;14.01;100.00
49030;BME280;43337;52.070;4.508;2023-03-18T12:18:15;101138.06;;;14.10;100.00
49030;BME280;43337;52.070;4.508;2023-03-18T12:20:54;101144.19;;;14.28;100.00
49030;BME280;43337;52.070;4.508;2023-03-18T12:24:02;101133.72;;;14.43;100.00
49030;BME280;43337;52.070;4.508;2023-03-18T12:26:51;101116.50;;;14.51;100.00
49030;BME280;43337;52.070;4.508;2023-03-18T12:32:24;101130.03;;;14.94;100.00
49030;BME280;43337;52.070;4.508;2023-03-18T12:45:44;101127.03;;;15.16;100.00
49030;BME280;43337;52.070;4.508;2023-03-18T12:48:17;101117.09;;;15.20;100.00
49030;BME280;43337;52.070;4.508;2023-03-18T12:50:55;101122.91;;;15.26;100.00
49030;BME280;43337;52.070;4.508;2023-03-18T12:53:23;101116.97;;;15.37;100.00
49030;BME280;43337;52.070;4.508;2023-03-18T12:55:59;101120.22;;;15.42;100.00
49030;BME280;43337;52.070;4.508;2023-03-18T12:58:30;101106.44;;;15.35;100.00
49030;BME280;43337;52.070;4.508;2023-03-18T13:01:00;101104.56;;;15.37;100.00
49030;BME280;43337;52.070;4.508;2023-03-18T13:03:39;101121.75;;;15.46;100.00
49030;BME280;43337;52.070;4.508;2023-03-18T13:06:23;101114.81;;;15.44;100.00
49030;BME280;43337;52.070;4.508;2023-03-18T13:17:02;101100.56;;;15.60;100.00
49030;BME280;43337;52.070;4.508;2023-03-18T13:19:29;101105.00;;;15.60;100.00
49030;BME280;43337;52.070;4.508;2023-03-18T13:29:59;101110.69;;;15.98;100.00
49030;BME280;43337;52.070;4.508;2023-03-18T13:40:44;101098.41;;;16.26;100.00
49030;BME280;43337;52.070;4.508;2023-03-18T13:43:16;101097.03;;;16.33;100.00
49030;BME280;43337;52.070;4.508;2023-03-18T13:45:46;101104.34;;;16.44;100.00
49030;BME280;43337;52.070;4.508;2023-03-18T13:48:22;101090.22;;;16.43;100.00
49030;BME280;43337;52.070;4.508;2023-03-18T13:50:52;101094.50;;;16.46;100.00
49030;BME280;43337;52.070;4.508;2023-03-18T13:53:37;101095.63;;;16.42;100.00
49030;BME280;43337;52.070;4.508;2023-03-18T13:56:06;101093.25;;;16.37;100.00
49030;BME280;43337;52.070;4.508;2023-03-18T13:58:48;101077.88;;;16.28;100.00
49030;BME280;43337;52.070;4.508;2023-03-18T14:06:24;101074.94;;;16.32;100.00